createdAt,value
2023-01-18T00:00:29.824Z,18.88
2023-01-18T00:02:57.375Z,19.08
2023-01-18T00:05:24.591Z,18.80
2023-01-18T00:07:52.942Z,18.42
2023-01-18T00:10:20.240Z,18.25
2023-01-18T00:12:46.906Z,24.75
2023-01-18T00:15:13.672Z,20.95
2023-01-18T00:17:40.615Z,24.42
2023-01-18T00:20:08.307Z,19.52
2023-01-18T00:22:34.968Z,17.73
2023-01-18T00:25:01.727Z,17.65
2023-01-18T00:27:28.407Z,17.50
2023-01-18T00:29:55.033Z,16.98
2023-01-18T00:32:21.709Z,17.92
2023-01-18T00:34:50.472Z,17.02
2023-01-18T00:37:17.302Z,17.77
2023-01-18T00:39:43.982Z,17.13
2023-01-18T00:42:10.678Z,17.08
2023-01-18T00:44:37.398Z,17.70
2023-01-18T00:47:04.100Z,16.85
2023-01-18T00:49:30.776Z,17.55
2023-01-18T00:51:58.876Z,17.25
2023-01-18T00:54:25.648Z,17.05
2023-01-18T00:56:52.359Z,17.50
2023-01-18T00:59:19.065Z,17.30
2023-01-18T01:01:45.848Z,17.83
2023-01-18T01:04:12.691Z,17.10
2023-01-18T01:06:39.347Z,15.77
2023-01-18T01:09:06.047Z,15.68
2023-01-18T01:11:32.714Z,15.38
2023-01-18T01:13:59.463Z,16.13
2023-01-18T01:16:26.208Z,15.35
2023-01-18T01:18:53.762Z,15.27
2023-01-18T01:21:20.473Z,16.65
2023-01-18T01:23:47.155Z,15.98
2023-01-18T01:26:13.829Z,16.20
2023-01-18T01:28:42.825Z,16.38
2023-01-18T01:31:14.591Z,16.27
2023-01-18T01:33:41.774Z,15.32
2023-01-18T01:36:13.168Z,15.32
2023-01-18T01:38:40.563Z,14.93
2023-01-18T01:41:08.960Z,15.00
2023-01-18T01:43:45.332Z,16.55
2023-01-18T01:46:32.265Z,15.70
2023-01-18T01:49:08.829Z,16.02
2023-01-18T01:51:39.562Z,17.48
2023-01-18T01:54:10.687Z,15.90
2023-01-18T01:56:37.821Z,15.13
2023-01-18T01:59:05.928Z,15.68
2023-01-18T02:01:34.616Z,16.88
2023-01-18T02:04:02.257Z,16.38
2023-01-18T02:06:34.688Z,19.13
2023-01-18T02:09:03.753Z,17.33
2023-01-18T02:11:31.149Z,16.13
2023-01-18T02:14:02.574Z,15.50
2023-01-18T02:16:49.539Z,14.73
2023-01-18T02:19:47.071Z,15.40
2023-01-18T02:22:32.072Z,14.68
2023-01-18T02:25:16.812Z,14.98
2023-01-18T02:27:50.954Z,14.73
2023-01-18T02:30:31.805Z,14.43
2023-01-18T02:33:13.051Z,14.80
2023-01-18T02:35:53.072Z,15.40
2023-01-18T02:38:21.703Z,14.75
2023-01-18T02:41:25.698Z,15.10
2023-01-18T02:43:56.095Z,14.90
2023-01-18T02:46:24.378Z,16.15
2023-01-18T02:48:52.024Z,14.88
2023-01-18T02:51:18.694Z,13.60
2023-01-18T02:53:47.720Z,14.65
2023-01-18T02:56:23.186Z,14.40
2023-01-18T02:59:03.904Z,15.00
2023-01-18T03:01:59.608Z,14.88
2023-01-18T03:04:36.300Z,13.88
2023-01-18T03:07:08.992Z,14.60
2023-01-18T03:09:36.160Z,15.02
2023-01-18T03:12:05.962Z,13.82
2023-01-18T03:14:59.727Z,14.73
2023-01-18T03:17:37.543Z,14.18
2023-01-18T03:20:12.773Z,13.70
2023-01-18T03:22:48.385Z,13.25
2023-01-18T03:25:19.541Z,14.13
2023-01-18T03:27:48.728Z,14.45
2023-01-18T03:30:15.681Z,15.48
2023-01-18T03:32:43.294Z,16.63
2023-01-18T03:35:14.632Z,15.07
2023-01-18T03:37:44.626Z,15.68
2023-01-18T03:40:16.988Z,15.48
2023-01-18T03:43:09.246Z,14.65
2023-01-18T03:45:40.354Z,15.20
2023-01-18T03:48:08.575Z,14.30
2023-01-18T03:50:50.113Z,14.05
2023-01-18T03:53:45.768Z,14.77
2023-01-18T03:56:35.091Z,14.93
2023-01-18T03:59:04.304Z,14.38
2023-01-18T04:01:31.463Z,16.00
2023-01-18T04:03:58.176Z,15.60
2023-01-18T04:06:24.973Z,12.82
2023-01-18T04:08:52.773Z,12.73
2023-01-18T04:11:19.694Z,13.30
2023-01-18T04:13:46.413Z,11.80
2023-01-18T04:16:13.245Z,11.10
2023-01-18T04:18:39.994Z,11.18
2023-01-18T04:21:06.872Z,11.05
2023-01-18T04:23:33.550Z,9.65
2023-01-18T04:26:00.238Z,9.15
2023-01-18T04:28:27.079Z,7.90
2023-01-18T04:30:56.114Z,8.32
2023-01-18T04:33:24.128Z,7.90
2023-01-18T04:35:50.816Z,7.13
2023-01-18T04:38:17.503Z,7.53
2023-01-18T04:40:44.193Z,6.88
2023-01-18T04:43:10.883Z,7.57
2023-01-18T04:45:40.444Z,7.13
2023-01-18T04:48:07.220Z,7.68
2023-01-18T04:50:34.056Z,7.70
2023-01-18T04:53:01.114Z,7.43
2023-01-18T04:55:28.020Z,7.57
2023-01-18T04:57:56.054Z,6.85
2023-01-18T05:00:23.358Z,6.43
2023-01-18T05:02:50.449Z,6.25
2023-01-18T05:05:17.604Z,7.88
2023-01-18T05:07:44.291Z,6.93
2023-01-18T05:10:11.875Z,6.55
2023-01-18T05:12:38.595Z,6.20
2023-01-18T05:15:05.848Z,6.78
2023-01-18T05:17:33.223Z,5.82
2023-01-18T05:20:00.606Z,5.65
2023-01-18T05:22:27.933Z,5.60
2023-01-18T05:24:54.671Z,5.60
2023-01-18T05:27:22.021Z,7.30
2023-01-18T05:29:48.725Z,10.48
2023-01-18T05:32:15.507Z,10.48
2023-01-18T05:34:42.176Z,10.25
2023-01-18T05:37:08.985Z,11.65
2023-01-18T05:39:35.949Z,10.73
2023-01-18T05:42:02.654Z,9.15
2023-01-18T05:44:29.388Z,8.30
2023-01-18T05:46:57.565Z,5.22
2023-01-18T05:49:24.278Z,5.13
2023-01-18T05:51:51.255Z,4.57
2023-01-18T05:54:18.150Z,4.88
2023-01-18T05:56:44.864Z,5.90
2023-01-18T05:59:11.580Z,7.88
2023-01-18T06:01:38.341Z,6.68
2023-01-18T06:04:05.235Z,7.57
2023-01-18T06:06:33.926Z,8.73
2023-01-18T06:09:01.746Z,8.73
2023-01-18T06:11:28.426Z,9.75
2023-01-18T06:13:55.121Z,9.63
2023-01-18T06:16:21.987Z,9.73
2023-01-18T06:18:48.768Z,10.25
2023-01-18T06:21:15.479Z,9.95
2023-01-18T06:23:42.175Z,9.65
2023-01-18T06:26:11.592Z,9.75
2023-01-18T06:28:38.247Z,9.38
2023-01-18T06:31:05.282Z,9.68
2023-01-18T06:33:31.954Z,10.45
2023-01-18T06:35:58.603Z,9.77
2023-01-18T06:38:25.323Z,10.27
2023-01-18T06:40:52.026Z,9.80
2023-01-18T06:43:18.736Z,10.05
2023-01-18T06:45:57.228Z,9.48
2023-01-18T06:48:25.289Z,9.55
2023-01-18T06:50:52.560Z,9.73
2023-01-18T06:53:20.420Z,9.43
2023-01-18T06:56:00.799Z,9.82
2023-01-18T06:58:29.061Z,9.32
2023-01-18T07:00:57.153Z,9.55
2023-01-18T07:03:24.734Z,10.32
2023-01-18T07:06:02.688Z,9.82
2023-01-18T07:08:30.795Z,9.10
2023-01-18T07:10:57.974Z,8.27
2023-01-18T07:13:25.179Z,8.00
2023-01-18T07:15:58.013Z,7.82
2023-01-18T07:18:26.651Z,7.68
2023-01-18T07:21:06.857Z,8.10
2023-01-18T07:23:35.831Z,8.15
2023-01-18T07:26:03.602Z,8.05
2023-01-18T07:28:31.507Z,8.68
2023-01-18T07:30:58.576Z,8.55
2023-01-18T07:33:25.320Z,8.13
2023-01-18T07:35:53.264Z,9.77
2023-01-18T07:38:20.984Z,8.23
2023-01-18T07:40:48.411Z,7.55
2023-01-18T07:43:16.857Z,8.23
2023-01-18T07:45:44.612Z,7.90
2023-01-18T07:48:11.349Z,7.55
2023-01-18T07:50:38.028Z,7.93
2023-01-18T07:53:04.788Z,7.72
2023-01-18T07:55:32.238Z,8.10
2023-01-18T07:57:59.955Z,8.50
2023-01-18T08:00:27.980Z,7.78
2023-01-18T08:02:57.037Z,6.72
2023-01-18T08:05:25.675Z,7.55
2023-01-18T08:07:52.878Z,7.57
2023-01-18T08:10:21.075Z,7.45
2023-01-18T08:12:48.354Z,6.63
2023-01-18T08:15:15.332Z,6.55
2023-01-18T08:17:42.018Z,6.50
2023-01-18T08:20:09.468Z,6.93
2023-01-18T08:22:36.764Z,7.25
2023-01-18T08:25:04.060Z,7.10
2023-01-18T08:27:30.748Z,7.47
2023-01-18T08:29:57.466Z,6.45
2023-01-18T08:32:24.684Z,6.18
2023-01-18T08:34:51.378Z,6.60
2023-01-18T08:37:18.134Z,7.47
2023-01-18T08:39:44.838Z,6.05
2023-01-18T08:42:12.416Z,6.80
2023-01-18T08:44:39.504Z,6.38
2023-01-18T08:47:07.843Z,6.32
2023-01-18T08:49:34.617Z,8.80
2023-01-18T08:52:01.641Z,8.38
2023-01-18T08:54:28.323Z,7.85
2023-01-18T08:56:55.001Z,7.07
2023-01-18T08:59:21.763Z,7.28
2023-01-18T09:01:48.483Z,6.43
2023-01-18T09:04:15.462Z,7.47
2023-01-18T09:06:42.376Z,7.20
2023-01-18T09:09:09.044Z,7.28
2023-01-18T09:11:35.761Z,7.32
2023-01-18T09:14:02.540Z,7.40
2023-01-18T09:16:30.484Z,6.85
2023-01-18T09:18:57.510Z,7.20
2023-01-18T09:21:24.496Z,6.57
2023-01-18T09:23:51.241Z,6.65
2023-01-18T09:26:18.241Z,6.38
2023-01-18T09:28:45.015Z,6.53
2023-01-18T09:31:12.150Z,7.07
2023-01-18T09:33:41.176Z,6.93
2023-01-18T09:36:11.247Z,7.00
2023-01-18T09:38:39.062Z,7.30
2023-01-18T09:41:22.653Z,7.55
2023-01-18T09:43:53.728Z,7.25
2023-01-18T09:46:22.702Z,7.20
2023-01-18T09:48:57.915Z,7.60
2023-01-18T09:51:53.111Z,7.57
2023-01-18T09:54:43.606Z,8.32
2023-01-18T09:57:22.500Z,8.05
2023-01-18T09:59:58.471Z,7.72
2023-01-18T10:02:35.053Z,7.93
2023-01-18T10:05:16.247Z,8.20
2023-01-18T10:07:52.219Z,9.15
2023-01-18T10:10:19.466Z,9.10
2023-01-18T10:13:15.961Z,9.60
2023-01-18T10:18:09.833Z,7.57
2023-01-18T10:20:47.299Z,8.15
2023-01-18T10:23:31.816Z,7.85
2023-01-18T10:26:30.308Z,8.25
2023-01-18T10:29:07.881Z,8.50
2023-01-18T10:31:45.084Z,8.77
2023-01-18T10:34:17.994Z,8.55
2023-01-18T10:36:50.742Z,9.43
2023-01-18T10:39:29.243Z,11.07
2023-01-18T10:42:01.689Z,10.48
2023-01-18T10:44:29.345Z,10.73
2023-01-18T10:47:00.872Z,10.50
2023-01-18T10:49:40.474Z,10.50
2023-01-18T10:52:26.236Z,9.85
2023-01-18T10:54:55.499Z,9.60
2023-01-18T10:57:30.244Z,9.35
2023-01-18T10:59:57.430Z,9.70
2023-01-18T11:02:31.745Z,8.75
2023-01-18T11:05:21.008Z,10.02
2023-01-18T11:07:47.990Z,8.95
2023-01-18T11:10:26.806Z,9.07
2023-01-18T11:12:53.489Z,9.93
2023-01-18T11:15:24.067Z,10.10
2023-01-18T11:17:50.809Z,9.40
2023-01-18T11:20:20.606Z,10.27
2023-01-18T11:22:54.772Z,9.60
2023-01-18T11:25:22.001Z,10.35
2023-01-18T11:27:50.103Z,9.23
2023-01-18T11:30:24.919Z,8.70
2023-01-18T11:32:52.226Z,9.03
2023-01-18T11:35:31.901Z,9.27
2023-01-18T11:38:03.446Z,9.38
2023-01-18T11:40:32.467Z,8.85
2023-01-18T11:43:04.033Z,9.02
2023-01-18T11:45:36.067Z,8.85
2023-01-18T11:48:11.985Z,8.80
2023-01-18T11:50:46.933Z,8.07
2023-01-18T11:53:25.617Z,8.40
2023-01-18T11:55:54.507Z,7.95
2023-01-18T11:58:31.001Z,8.00
2023-01-18T12:01:08.009Z,7.55
2023-01-18T12:03:47.074Z,9.20
2023-01-18T12:06:41.637Z,7.60
2023-01-18T12:09:18.879Z,8.05
2023-01-18T12:12:19.076Z,7.50
2023-01-18T12:15:00.575Z,6.75
2023-01-18T12:18:12.007Z,6.32
2023-01-18T12:21:20.775Z,6.20
2023-01-18T12:24:10.373Z,6.90
2023-01-18T12:26:49.428Z,6.20
2023-01-18T12:29:37.263Z,6.72
2023-01-18T12:32:18.120Z,8.73
2023-01-18T12:34:50.365Z,6.28
2023-01-18T12:37:21.362Z,6.70
2023-01-18T12:40:06.978Z,6.65
2023-01-18T12:42:48.585Z,6.78
2023-01-18T12:45:38.871Z,5.88
2023-01-18T12:48:14.222Z,7.15
2023-01-18T12:50:42.596Z,7.15
2023-01-18T12:53:50.572Z,7.03
2023-01-18T12:56:27.612Z,6.93
2023-01-18T12:59:00.736Z,7.57
2023-01-18T13:01:32.925Z,8.23
2023-01-18T13:04:07.354Z,6.07
2023-01-18T13:06:35.790Z,6.25
2023-01-18T13:09:13.679Z,6.30
2023-01-18T13:11:43.060Z,6.47
2023-01-18T13:14:25.336Z,6.40
2023-01-18T13:17:25.509Z,7.15
2023-01-18T13:19:59.223Z,9.00
2023-01-18T13:23:10.468Z,6.57
2023-01-18T13:26:17.858Z,7.18
2023-01-18T13:28:44.780Z,7.63
2023-01-18T13:31:11.912Z,8.00
2023-01-18T13:33:56.852Z,7.75
2023-01-18T13:36:23.718Z,7.60
2023-01-18T13:39:00.328Z,6.25
2023-01-18T13:41:29.405Z,6.65
2023-01-18T13:43:59.454Z,6.63
2023-01-18T13:46:27.582Z,6.75
2023-01-18T13:48:57.032Z,6.70
2023-01-18T13:51:38.868Z,6.18
2023-01-18T13:54:28.766Z,6.40
2023-01-18T13:57:01.637Z,6.88
2023-01-18T13:59:32.930Z,6.78
2023-01-18T14:02:31.722Z,6.70
2023-01-18T14:04:59.577Z,7.25
2023-01-18T14:07:27.086Z,6.65
2023-01-18T14:09:54.223Z,6.85
2023-01-18T14:12:47.122Z,7.85
2023-01-18T14:15:47.981Z,8.15
2023-01-18T14:18:30.937Z,8.43
2023-01-18T14:21:22.103Z,8.30
2023-01-18T14:24:19.314Z,6.90
2023-01-18T14:26:46.848Z,7.82
2023-01-18T14:29:27.778Z,7.43
2023-01-18T14:31:56.440Z,7.00
2023-01-18T14:34:29.355Z,7.15
2023-01-18T14:36:57.116Z,7.30
2023-01-18T14:39:24.065Z,6.80
2023-01-18T14:41:56.321Z,6.97
2023-01-18T14:44:27.020Z,6.70
2023-01-18T14:46:56.431Z,7.68
2023-01-18T14:49:32.362Z,6.90
2023-01-18T14:51:59.272Z,7.20
2023-01-18T14:54:26.234Z,6.60
2023-01-18T14:57:01.618Z,6.75
2023-01-18T14:59:29.359Z,6.47
2023-01-18T15:02:13.625Z,7.65
2023-01-18T15:04:40.495Z,7.68
2023-01-18T15:07:16.623Z,7.38
2023-01-18T15:09:44.508Z,7.85
2023-01-18T15:12:16.712Z,7.55
2023-01-18T15:14:49.511Z,8.95
2023-01-18T15:17:23.971Z,9.15
2023-01-18T15:19:55.017Z,7.82
2023-01-18T15:22:32.067Z,7.85
2023-01-18T15:25:00.231Z,8.65
2023-01-18T15:27:31.768Z,8.80
2023-01-18T15:30:01.236Z,8.30
2023-01-18T15:32:33.009Z,8.32
2023-01-18T15:35:01.194Z,8.30
2023-01-18T15:37:36.923Z,8.82
2023-01-18T15:40:05.615Z,8.85
2023-01-18T15:42:48.332Z,8.70
2023-01-18T15:45:25.989Z,8.98
2023-01-18T15:47:57.842Z,7.93
2023-01-18T15:50:30.930Z,8.95
2023-01-18T15:53:02.386Z,8.82
2023-01-18T15:55:37.288Z,9.50
2023-01-18T15:58:11.334Z,8.93
2023-01-18T16:00:53.694Z,9.50
2023-01-18T16:03:25.314Z,8.90
2023-01-18T16:06:22.785Z,8.02
2023-01-18T16:08:55.453Z,8.48
2023-01-18T16:11:26.372Z,8.63
2023-01-18T16:13:58.351Z,9.40
2023-01-18T16:16:26.523Z,8.07
2023-01-18T16:19:14.852Z,8.40
2023-01-18T16:21:47.400Z,9.32
2023-01-18T16:24:26.292Z,9.18
2023-01-18T16:26:54.108Z,8.65
2023-01-18T16:29:21.028Z,8.85
2023-01-18T16:31:47.736Z,9.20
2023-01-18T16:34:25.719Z,9.95
2023-01-18T16:36:53.172Z,10.50
2023-01-18T16:39:20.611Z,9.40
2023-01-18T16:41:57.860Z,9.18
2023-01-18T16:44:26.212Z,10.07
2023-01-18T16:46:52.897Z,10.35
2023-01-18T16:49:19.619Z,8.95
2023-01-18T16:51:46.700Z,10.07
2023-01-18T16:54:13.793Z,9.95
2023-01-18T16:56:40.541Z,11.10
2023-01-18T16:59:25.062Z,10.75
2023-01-18T17:01:51.901Z,12.02
2023-01-18T17:04:18.655Z,11.43
2023-01-18T17:06:45.348Z,11.02
2023-01-18T17:09:22.013Z,10.48
2023-01-18T17:11:49.099Z,11.25
2023-01-18T17:14:16.248Z,11.27
2023-01-18T17:16:44.169Z,11.00
2023-01-18T17:19:19.380Z,12.40
2023-01-18T17:21:47.874Z,11.65
2023-01-18T17:24:15.422Z,11.93
2023-01-18T17:26:42.618Z,11.68
2023-01-18T17:29:13.583Z,11.85
2023-01-18T17:31:51.287Z,11.93
2023-01-18T17:34:27.814Z,11.77
2023-01-18T17:36:56.546Z,11.80
2023-01-18T17:39:28.125Z,11.13
2023-01-18T17:42:04.138Z,12.73
2023-01-18T17:44:36.887Z,12.93
2023-01-18T17:47:04.013Z,12.68
2023-01-18T17:49:30.763Z,12.18
2023-01-18T17:51:57.541Z,13.68
2023-01-18T17:54:24.360Z,13.65
2023-01-18T17:56:51.122Z,13.43
2023-01-18T17:59:17.918Z,13.32
2023-01-18T18:01:44.753Z,13.52
2023-01-18T18:04:11.581Z,14.30
2023-01-18T18:06:40.521Z,13.45
2023-01-18T18:09:12.816Z,12.57
2023-01-18T18:11:39.557Z,13.40
2023-01-18T18:14:06.192Z,13.30
2023-01-18T18:16:40.835Z,13.52
2023-01-18T18:19:10.040Z,12.75
2023-01-18T18:21:36.724Z,13.02
2023-01-18T18:24:03.506Z,12.27
2023-01-18T18:26:30.256Z,11.85
2023-01-18T18:28:56.882Z,12.15
2023-01-18T18:31:23.694Z,11.88
2023-01-18T18:33:50.409Z,11.50
2023-01-18T18:36:17.175Z,11.77
2023-01-18T18:38:43.862Z,12.65
2023-01-18T18:41:10.505Z,13.02
2023-01-18T18:43:37.192Z,13.98
2023-01-18T18:46:04.186Z,13.13
2023-01-18T18:48:30.933Z,13.00
2023-01-18T18:50:57.646Z,13.40
2023-01-18T18:53:36.976Z,12.93
2023-01-18T18:56:05.689Z,14.23
2023-01-18T18:58:33.247Z,14.35
2023-01-18T19:01:00.422Z,14.18
2023-01-18T19:03:27.169Z,13.68
2023-01-18T19:05:54.113Z,14.55
2023-01-18T19:08:20.960Z,15.40
2023-01-18T19:10:51.761Z,16.08
2023-01-18T19:13:19.151Z,15.13
2023-01-18T19:15:47.060Z,15.35
2023-01-18T19:18:14.632Z,14.88
2023-01-18T19:20:41.954Z,13.98
2023-01-18T19:23:10.292Z,14.80
2023-01-18T19:25:40.297Z,14.63
2023-01-18T19:28:07.020Z,14.32
2023-01-18T19:30:33.725Z,14.68
2023-01-18T19:33:01.068Z,14.18
2023-01-18T19:35:28.375Z,14.85
2023-01-18T19:37:55.325Z,14.85
2023-01-18T19:40:22.164Z,15.18
2023-01-18T19:42:51.686Z,15.32
2023-01-18T19:45:27.315Z,14.80
2023-01-18T19:47:56.431Z,15.43
2023-01-18T19:50:23.508Z,15.20
2023-01-18T19:52:50.331Z,16.00
2023-01-18T19:55:17.514Z,16.85
2023-01-18T19:57:44.256Z,16.63
2023-01-18T20:00:11.548Z,15.68
2023-01-18T20:02:38.999Z,16.13
2023-01-18T20:05:06.275Z,17.73
2023-01-18T20:07:33.222Z,16.25
2023-01-18T20:09:59.924Z,16.30
2023-01-18T20:12:26.627Z,17.02
2023-01-18T20:14:53.324Z,16.58
2023-01-18T20:17:20.024Z,16.38
2023-01-18T20:19:46.724Z,16.13
2023-01-18T20:22:13.428Z,15.73
2023-01-18T20:24:40.116Z,15.65
2023-01-18T20:27:15.844Z,17.00
2023-01-18T20:29:43.387Z,16.33
2023-01-18T20:32:16.041Z,16.10
2023-01-18T20:34:44.558Z,15.73
2023-01-18T20:37:12.730Z,16.13
2023-01-18T20:39:39.843Z,16.48
2023-01-18T20:42:06.561Z,17.00
2023-01-18T20:44:33.335Z,16.25
2023-01-18T20:47:00.099Z,16.02
2023-01-18T20:49:37.385Z,18.95
2023-01-18T20:52:05.470Z,18.65
2023-01-18T20:54:33.588Z,19.25
2023-01-18T20:57:01.336Z,19.67
2023-01-18T20:59:28.041Z,19.17
2023-01-18T21:01:54.929Z,20.55
2023-01-18T21:04:21.794Z,20.17
2023-01-18T21:06:48.574Z,20.15
2023-01-18T21:09:15.781Z,21.45
2023-01-18T21:11:42.490Z,19.90
2023-01-18T21:14:09.278Z,21.55
2023-01-18T21:16:36.079Z,20.55
2023-01-18T21:19:02.905Z,19.83
2023-01-18T21:21:29.596Z,21.15
2023-01-18T21:23:56.403Z,21.50
2023-01-18T21:26:23.286Z,20.60
2023-01-18T21:28:50.170Z,21.50
2023-01-18T21:31:17.056Z,20.15
2023-01-18T21:33:43.857Z,21.33
2023-01-18T21:36:16.087Z,20.95
2023-01-18T21:38:43.339Z,20.73
2023-01-18T21:41:10.783Z,20.40
2023-01-18T21:43:37.484Z,20.77
2023-01-18T21:46:07.047Z,20.20
2023-01-18T21:48:33.935Z,21.20
2023-01-18T21:51:05.255Z,20.50
2023-01-18T21:53:32.025Z,21.10
2023-01-18T21:55:59.367Z,22.70
2023-01-18T21:58:26.107Z,22.15
2023-01-18T22:00:52.972Z,22.77
2023-01-18T22:03:19.745Z,23.35
2023-01-18T22:05:46.384Z,23.15
2023-01-18T22:08:13.231Z,22.95
2023-01-18T22:10:39.948Z,22.98
2023-01-18T22:13:06.824Z,23.58
2023-01-18T22:15:33.591Z,22.27
2023-01-18T22:18:00.837Z,23.48
2023-01-18T22:20:28.480Z,22.70
2023-01-18T22:22:55.908Z,22.83
2023-01-18T22:25:22.597Z,23.58
2023-01-18T22:27:49.325Z,22.70
2023-01-18T22:30:18.977Z,23.02
2023-01-18T22:32:45.647Z,21.85
2023-01-18T22:35:12.368Z,22.75
2023-01-18T22:37:39.054Z,22.25
2023-01-18T22:40:06.582Z,22.92
2023-01-18T22:42:33.222Z,23.25
2023-01-18T22:44:59.957Z,24.60
2023-01-18T22:47:27.015Z,24.05
2023-01-18T22:49:53.716Z,22.95
2023-01-18T22:52:20.428Z,24.63
2023-01-18T22:54:47.127Z,23.92
2023-01-18T22:57:13.829Z,25.63
2023-01-18T22:59:40.524Z,24.40
2023-01-18T23:02:07.193Z,25.02
2023-01-18T23:04:33.955Z,24.08
2023-01-18T23:07:00.870Z,24.60
2023-01-18T23:09:27.955Z,24.33
2023-01-18T23:11:56.753Z,24.30
2023-01-18T23:14:23.435Z,24.10
2023-01-18T23:16:50.164Z,24.02
2023-01-18T23:19:17.005Z,23.42
2023-01-18T23:21:43.723Z,24.23
2023-01-18T23:24:10.412Z,24.10
2023-01-18T23:26:37.121Z,23.95
2023-01-18T23:29:04.337Z,24.00
2023-01-18T23:31:31.346Z,24.70
2023-01-18T23:33:58.039Z,23.38
2023-01-18T23:36:24.784Z,22.52
2023-01-18T23:38:51.456Z,23.13
2023-01-18T23:41:18.484Z,22.58
2023-01-18T23:43:45.231Z,21.35
2023-01-18T23:46:11.952Z,19.52
2023-01-18T23:48:38.666Z,19.80
2023-01-18T23:51:05.713Z,20.20
2023-01-18T23:53:32.374Z,20.10
2023-01-18T23:55:59.892Z,20.25
2023-01-18T23:58:27.007Z,20.27
